createdAt,value
2022-08-16T00:01:33.815Z,8.20
2022-08-16T00:04:01.799Z,8.48
2022-08-16T00:06:33.029Z,8.30
2022-08-16T00:09:00.477Z,9.20
2022-08-16T00:11:27.902Z,8.02
2022-08-16T00:13:55.821Z,8.60
2022-08-16T00:17:06.215Z,9.43
2022-08-16T00:19:16.141Z,8.20
2022-08-16T00:21:44.392Z,8.45
2022-08-16T00:24:12.793Z,8.85
2022-08-16T00:26:44.460Z,8.57
2022-08-16T00:29:15.656Z,8.30
2022-08-16T00:31:59.904Z,8.32
2022-08-16T00:34:45.012Z,8.48
2022-08-16T00:37:18.649Z,8.70
2022-08-16T00:39:57.115Z,8.68
2022-08-16T00:42:30.112Z,9.23
2022-08-16T00:45:10.042Z,9.05
2022-08-16T00:47:49.071Z,8.80
2022-08-16T00:50:20.257Z,10.13
2022-08-16T00:52:51.177Z,8.82
2022-08-16T00:55:22.619Z,8.77
2022-08-16T00:57:58.647Z,9.05
2022-08-16T01:00:30.277Z,9.25
2022-08-16T01:03:00.005Z,8.60
2022-08-16T01:05:28.961Z,8.70
2022-08-16T01:07:59.735Z,9.00
2022-08-16T01:10:32.455Z,9.30
2022-08-16T01:13:05.495Z,9.32
2022-08-16T01:15:35.162Z,9.35
2022-08-16T01:18:04.558Z,9.27
2022-08-16T01:20:36.613Z,9.88
2022-08-16T01:23:11.163Z,9.73
2022-08-16T01:25:44.089Z,9.35
2022-08-16T01:28:20.283Z,9.45
2022-08-16T01:30:53.350Z,9.70
2022-08-16T01:33:22.616Z,10.00
2022-08-16T01:36:11.669Z,9.65
2022-08-16T01:38:48.836Z,10.48
2022-08-16T01:41:29.571Z,10.30
2022-08-16T01:44:01.113Z,10.40
2022-08-16T01:46:39.863Z,10.07
2022-08-16T01:49:18.823Z,10.43
2022-08-16T01:51:55.781Z,10.70
2022-08-16T01:54:30.553Z,10.40
2022-08-16T01:57:00.059Z,10.00
2022-08-16T01:59:28.068Z,10.73
2022-08-16T02:01:59.485Z,10.02
2022-08-16T02:04:48.835Z,11.05
2022-08-16T02:07:18.755Z,10.25
2022-08-16T02:09:58.898Z,9.30
2022-08-16T02:12:40.122Z,9.77
2022-08-16T02:15:25.360Z,9.88
2022-08-16T02:17:58.214Z,10.25
2022-08-16T02:20:27.856Z,10.30
2022-08-16T02:22:57.393Z,11.07
2022-08-16T02:25:25.431Z,11.57
2022-08-16T02:28:12.849Z,11.57
2022-08-16T02:30:50.675Z,11.18
2022-08-16T02:33:24.428Z,12.52
2022-08-16T02:35:55.533Z,10.95
2022-08-16T02:38:26.528Z,11.73
2022-08-16T02:40:54.994Z,11.55
2022-08-16T02:43:26.618Z,11.25
2022-08-16T02:45:56.344Z,11.25
2022-08-16T02:48:29.667Z,12.00
2022-08-16T02:51:10.322Z,11.98
2022-08-16T02:53:43.361Z,11.98
2022-08-16T02:56:14.955Z,12.18
2022-08-16T02:58:44.397Z,12.65
2022-08-16T03:01:24.329Z,11.85
2022-08-16T03:04:40.100Z,11.80
2022-08-16T03:06:43.163Z,11.68
2022-08-16T03:09:15.010Z,11.85
2022-08-16T03:11:45.003Z,11.07
2022-08-16T03:14:12.339Z,12.55
2022-08-16T03:16:58.502Z,12.45
2022-08-16T03:19:47.334Z,14.30
2022-08-16T03:22:19.520Z,12.93
2022-08-16T03:24:58.792Z,13.15
2022-08-16T03:27:31.279Z,12.00
2022-08-16T03:30:16.591Z,11.65
2022-08-16T03:32:51.393Z,9.95
2022-08-16T03:35:21.910Z,10.02
2022-08-16T03:38:03.170Z,8.60
2022-08-16T03:40:33.876Z,9.55
2022-08-16T03:43:19.994Z,10.25
2022-08-16T03:45:49.549Z,9.13
2022-08-16T03:48:36.949Z,10.27
2022-08-16T03:51:12.307Z,9.82
2022-08-16T03:53:41.777Z,9.52
2022-08-16T03:56:19.511Z,8.68
2022-08-16T03:58:48.387Z,10.10
2022-08-16T04:01:18.676Z,9.38
2022-08-16T04:03:45.978Z,9.52
2022-08-16T04:06:13.486Z,9.35
2022-08-16T04:08:43.246Z,9.00
2022-08-16T04:11:16.365Z,10.63
2022-08-16T04:14:01.337Z,9.75
2022-08-16T04:16:33.727Z,9.35
2022-08-16T04:19:04.571Z,9.82
2022-08-16T04:21:34.491Z,10.88
2022-08-16T04:24:03.328Z,9.75
2022-08-16T04:26:32.057Z,9.93
2022-08-16T04:29:15.053Z,10.32
2022-08-16T04:31:56.056Z,10.00
2022-08-16T04:34:30.541Z,11.93
2022-08-16T04:37:01.029Z,10.30
2022-08-16T04:39:45.006Z,11.57
2022-08-16T04:42:17.281Z,11.00
2022-08-16T04:44:54.511Z,10.57
2022-08-16T04:47:31.338Z,10.55
2022-08-16T04:50:02.304Z,10.02
2022-08-16T04:52:33.748Z,10.52
2022-08-16T04:55:11.963Z,9.52
2022-08-16T04:57:41.268Z,10.30
2022-08-16T05:00:32.512Z,9.20
2022-08-16T05:03:12.006Z,9.50
2022-08-16T05:05:55.615Z,9.07
2022-08-16T05:08:30.960Z,9.57
2022-08-16T05:11:05.416Z,8.65
2022-08-16T05:13:41.337Z,10.77
2022-08-16T05:16:21.375Z,10.02
2022-08-16T05:18:51.174Z,9.25
2022-08-16T05:21:20.785Z,9.88
2022-08-16T05:23:55.714Z,8.70
2022-08-16T05:26:28.043Z,9.70
2022-08-16T05:28:58.546Z,8.35
2022-08-16T05:31:29.492Z,8.82
2022-08-16T05:34:03.149Z,8.80
2022-08-16T05:36:34.265Z,8.07
2022-08-16T05:39:08.933Z,8.48
2022-08-16T05:41:45.981Z,8.98
2022-08-16T05:44:22.377Z,9.95
2022-08-16T05:46:57.641Z,8.98
2022-08-16T05:49:38.531Z,9.15
2022-08-16T05:52:11.314Z,8.60
2022-08-16T05:54:47.069Z,8.65
2022-08-16T05:57:23.108Z,9.25
2022-08-16T06:00:04.475Z,8.80
2022-08-16T06:02:35.264Z,8.88
2022-08-16T06:05:04.731Z,7.90
2022-08-16T06:07:32.423Z,10.25
2022-08-16T06:10:31.964Z,8.82
2022-08-16T06:12:55.988Z,9.00
2022-08-16T06:15:35.145Z,9.30
2022-08-16T06:18:19.844Z,11.20
2022-08-16T06:21:00.076Z,10.43
2022-08-16T06:23:28.437Z,10.50
2022-08-16T06:26:00.524Z,10.25
2022-08-16T06:28:36.699Z,11.48
2022-08-16T06:31:12.014Z,12.18
2022-08-16T06:36:32.513Z,13.27
2022-08-16T06:39:06.124Z,13.25
2022-08-16T06:41:39.907Z,13.05
2022-08-16T06:44:08.276Z,13.25
2022-08-16T06:46:54.361Z,12.15
2022-08-16T06:49:22.381Z,13.13
2022-08-16T06:51:50.141Z,13.60
2022-08-16T06:54:20.749Z,14.23
2022-08-16T06:56:55.196Z,14.55
2022-08-16T06:59:28.806Z,15.52
2022-08-16T07:02:04.652Z,16.20
2022-08-16T07:04:53.513Z,17.02
2022-08-16T07:07:21.119Z,18.15
2022-08-16T07:09:49.764Z,21.90
2022-08-16T07:12:19.740Z,21.27
2022-08-16T07:14:49.161Z,21.77
2022-08-16T07:17:19.684Z,19.02
2022-08-16T07:20:29.877Z,18.60
2022-08-16T07:22:38.110Z,19.52
2022-08-16T07:25:22.805Z,19.92
2022-08-16T07:27:50.972Z,19.02
2022-08-16T07:30:38.932Z,20.08
2022-08-16T07:33:08.229Z,21.45
2022-08-16T07:35:49.701Z,24.77
2022-08-16T07:38:33.793Z,22.88
2022-08-16T07:41:02.370Z,24.98
2022-08-16T07:43:40.552Z,26.67
2022-08-16T07:46:37.580Z,25.67
2022-08-16T07:49:02.347Z,26.08
2022-08-16T07:51:37.404Z,25.42
2022-08-16T07:54:10.174Z,26.52
2022-08-16T07:56:53.773Z,24.92
2022-08-16T07:59:26.206Z,27.23
2022-08-16T08:02:14.150Z,25.73
2022-08-16T08:04:55.109Z,21.33
2022-08-16T08:07:27.530Z,17.75
2022-08-16T08:09:57.160Z,22.83
2022-08-16T08:12:31.217Z,21.27
2022-08-16T08:15:00.573Z,16.15
2022-08-16T08:17:50.326Z,14.35
2022-08-16T08:20:28.010Z,13.02
2022-08-16T08:23:24.666Z,12.52
2022-08-16T08:25:55.719Z,12.63
2022-08-16T08:28:29.140Z,11.20
2022-08-16T08:31:10.717Z,11.30
2022-08-16T08:34:04.824Z,11.48
2022-08-16T08:36:37.437Z,12.63
2022-08-16T08:39:27.015Z,11.52
2022-08-16T08:42:48.090Z,11.20
2022-08-16T08:45:08.218Z,11.45
2022-08-16T08:47:36.906Z,13.55
2022-08-16T08:50:12.161Z,12.02
2022-08-16T08:52:58.700Z,12.48
2022-08-16T08:55:58.674Z,12.13
2022-08-16T08:59:20.532Z,12.48
2022-08-16T09:02:13.889Z,12.30
2022-08-16T09:05:51.621Z,11.30
2022-08-16T09:08:38.951Z,12.80
2022-08-16T09:11:52.725Z,11.50
2022-08-16T09:14:25.038Z,11.00
2022-08-16T09:17:49.279Z,11.30
2022-08-16T10:11:30.424Z,10.05
2022-08-16T11:47:26.101Z,14.75
2022-08-16T11:49:55.156Z,15.55
2022-08-16T11:52:27.822Z,13.98
2022-08-16T11:54:57.101Z,14.45
2022-08-16T11:57:27.776Z,14.45
2022-08-16T11:59:58.813Z,13.70
2022-08-16T12:02:31.994Z,15.05
2022-08-16T12:05:02.218Z,14.38
2022-08-16T12:07:31.598Z,13.85
2022-08-16T12:10:08.318Z,14.15
2022-08-16T12:12:44.514Z,14.27
2022-08-16T12:15:18.571Z,14.02
2022-08-16T12:18:09.811Z,14.20
2022-08-16T12:21:35.783Z,15.02
2022-08-16T12:23:34.906Z,14.07
2022-08-16T12:26:06.347Z,14.57
2022-08-16T12:28:54.455Z,14.63
2022-08-16T12:31:24.709Z,15.07
2022-08-16T12:33:57.741Z,14.00
2022-08-16T12:36:26.475Z,13.63
2022-08-16T12:38:58.186Z,13.98
2022-08-16T12:41:26.864Z,12.68
2022-08-16T12:44:01.060Z,12.85
2022-08-16T12:46:31.150Z,12.40
2022-08-16T12:49:03.690Z,13.00
2022-08-16T12:51:59.000Z,17.17
2022-08-16T12:54:30.214Z,11.63
2022-08-16T12:56:57.957Z,11.05
2022-08-16T13:02:41.877Z,11.88
2022-08-16T13:05:19.712Z,11.95
2022-08-16T13:07:53.018Z,11.55
2022-08-16T13:10:39.224Z,14.43
2022-08-16T13:13:20.322Z,9.93
2022-08-16T13:15:56.921Z,8.77
2022-08-16T13:18:34.448Z,8.15
2022-08-16T13:21:10.507Z,8.10
2022-08-16T13:23:43.261Z,8.73
2022-08-16T13:26:17.290Z,8.57
2022-08-16T13:28:47.733Z,8.55
2022-08-16T13:31:26.316Z,8.63
2022-08-16T13:33:58.723Z,7.85
2022-08-16T13:39:20.451Z,8.25
2022-08-16T13:41:55.539Z,8.07
2022-08-16T13:44:33.110Z,7.93
2022-08-16T13:47:15.830Z,7.30
2022-08-16T13:49:48.451Z,7.93
2022-08-16T13:52:20.820Z,8.45
2022-08-16T13:54:49.458Z,8.10
2022-08-16T13:57:17.690Z,8.15
2022-08-16T13:59:45.452Z,8.40
2022-08-16T14:02:20.045Z,7.88
2022-08-16T14:05:05.225Z,8.05
2022-08-16T14:07:40.539Z,7.93
2022-08-16T14:10:15.315Z,7.25
2022-08-16T14:12:45.139Z,7.47
2022-08-16T14:15:17.711Z,7.55
2022-08-16T14:18:15.535Z,7.35
2022-08-16T14:20:40.352Z,7.40
2022-08-16T14:23:17.628Z,7.30
2022-08-16T14:25:54.517Z,6.75
2022-08-16T14:28:25.810Z,7.53
2022-08-16T14:30:56.868Z,6.15
2022-08-16T14:33:32.928Z,6.95
2022-08-16T14:36:03.123Z,6.40
2022-08-16T14:38:37.466Z,6.55
2022-08-16T14:41:10.247Z,6.88
2022-08-16T14:43:38.388Z,6.78
2022-08-16T14:46:08.803Z,6.95
2022-08-16T14:48:38.882Z,7.00
2022-08-16T14:51:06.752Z,6.70
2022-08-16T14:53:38.821Z,6.18
2022-08-16T14:56:15.034Z,7.18
2022-08-16T14:59:02.277Z,14.30
2022-08-16T15:01:42.379Z,6.45
2022-08-16T15:04:40.389Z,6.78
2022-08-16T15:07:12.828Z,6.72
2022-08-16T15:10:00.840Z,6.40
2022-08-16T15:12:34.143Z,6.28
2022-08-16T15:15:12.624Z,6.80
2022-08-16T15:17:55.999Z,6.53
2022-08-16T15:20:39.855Z,6.57
2022-08-16T15:23:33.751Z,6.38
2022-08-16T15:26:03.997Z,6.10
2022-08-16T15:28:38.347Z,6.35
2022-08-16T15:31:09.527Z,7.07
2022-08-16T15:33:50.119Z,7.45
2022-08-16T15:36:30.171Z,7.35
2022-08-16T15:39:30.151Z,7.47
2022-08-16T15:41:58.328Z,7.43
2022-08-16T15:44:52.904Z,6.45
2022-08-16T15:47:26.328Z,6.43
2022-08-16T15:49:56.523Z,6.50
2022-08-16T15:52:33.789Z,6.55
2022-08-16T15:55:13.403Z,6.25
2022-08-16T15:57:52.064Z,5.97
2022-08-16T16:00:23.132Z,7.22
2022-08-16T16:03:19.855Z,6.72
2022-08-16T16:06:00.072Z,6.72
2022-08-16T16:08:41.690Z,6.82
2022-08-16T16:11:11.568Z,8.25
2022-08-16T16:13:40.086Z,8.30
2022-08-16T16:16:16.521Z,6.55
2022-08-16T16:18:50.617Z,6.85
2022-08-16T16:21:22.714Z,7.07
2022-08-16T16:23:58.919Z,6.68
2022-08-16T16:26:32.502Z,6.93
2022-08-16T16:29:07.532Z,7.55
2022-08-16T16:31:43.856Z,6.57
2022-08-16T16:34:18.435Z,6.90
2022-08-16T16:36:51.961Z,7.00
2022-08-16T16:39:24.293Z,7.25
2022-08-16T16:41:53.850Z,6.63
2022-08-16T16:44:33.866Z,11.15
2022-08-16T16:47:08.790Z,7.00
2022-08-16T16:49:41.852Z,10.75
2022-08-16T16:52:43.358Z,6.97
2022-08-16T16:55:09.108Z,7.32
2022-08-16T16:58:00.842Z,7.38
2022-08-16T17:00:38.952Z,8.32
2022-08-16T17:03:17.064Z,7.78
2022-08-16T17:05:58.643Z,7.20
2022-08-16T17:08:32.943Z,7.47
2022-08-16T17:11:04.293Z,9.05
2022-08-16T17:13:38.824Z,7.85
2022-08-16T17:16:18.735Z,8.82
2022-08-16T17:19:16.976Z,8.07
2022-08-16T17:22:02.655Z,7.25
2022-08-16T17:24:44.873Z,7.78
2022-08-16T17:27:50.914Z,7.97
2022-08-16T17:30:50.656Z,6.85
2022-08-16T17:33:36.931Z,7.05
2022-08-16T17:36:36.058Z,7.35
2022-08-16T17:39:18.958Z,8.68
2022-08-16T17:41:57.187Z,7.18
2022-08-16T17:44:34.759Z,7.88
2022-08-16T17:47:15.131Z,10.85
2022-08-16T17:49:45.729Z,9.52
2022-08-16T17:52:13.854Z,7.95
2022-08-16T17:54:51.792Z,7.32
2022-08-16T17:57:33.004Z,9.27
2022-08-16T18:00:15.850Z,12.38
2022-08-16T18:02:53.511Z,9.15
2022-08-16T18:05:22.452Z,9.80
2022-08-16T18:07:53.171Z,20.98
2022-08-16T18:10:33.502Z,9.05
2022-08-16T18:13:05.527Z,10.05
2022-08-16T18:15:53.639Z,9.27
2022-08-16T18:18:29.483Z,9.52
2022-08-16T18:21:23.327Z,9.40
2022-08-16T18:23:54.004Z,9.75
2022-08-16T18:26:22.127Z,9.43
2022-08-16T18:28:50.904Z,9.93
2022-08-16T18:31:20.329Z,9.80
2022-08-16T18:33:48.700Z,8.85
2022-08-16T18:39:11.068Z,9.07
2022-08-16T18:41:48.045Z,8.23
2022-08-16T18:44:29.201Z,11.13
2022-08-16T18:47:07.623Z,10.40
2022-08-16T18:49:40.221Z,10.25
2022-08-16T18:52:22.131Z,10.02
2022-08-16T18:55:03.008Z,9.63
2022-08-16T18:57:57.045Z,8.85
2022-08-16T19:00:55.960Z,8.85
2022-08-16T19:03:29.868Z,8.77
2022-08-16T19:06:14.232Z,8.45
2022-08-16T19:08:44.377Z,8.45
2022-08-16T19:11:23.510Z,8.45
2022-08-16T19:13:52.957Z,7.43
2022-08-16T19:16:26.204Z,8.68
2022-08-16T19:22:01.061Z,7.93
2022-08-16T19:25:21.788Z,8.07
2022-08-16T19:27:50.495Z,8.38
2022-08-16T19:30:40.357Z,8.27
2022-08-16T19:33:14.399Z,9.00
2022-08-16T19:35:51.399Z,8.77
2022-08-16T19:38:34.805Z,8.35
2022-08-16T19:41:13.333Z,9.18
2022-08-16T19:43:41.345Z,8.48
2022-08-16T19:46:12.893Z,8.50
2022-08-16T19:48:40.917Z,8.45
2022-08-16T19:51:17.768Z,8.95
2022-08-16T19:53:50.550Z,9.57
2022-08-16T19:56:25.921Z,8.80
2022-08-16T20:01:50.250Z,8.82
2022-08-16T20:04:21.031Z,8.95
2022-08-16T20:06:49.105Z,8.50
2022-08-16T20:09:18.997Z,9.73
2022-08-16T20:11:49.830Z,13.05
2022-08-16T20:14:26.457Z,9.52
2022-08-16T20:17:01.914Z,8.98
2022-08-16T20:19:36.205Z,9.45
2022-08-16T20:22:49.782Z,8.32
2022-08-16T20:25:18.886Z,8.57
2022-08-16T20:27:47.182Z,21.67
2022-08-16T20:31:14.795Z,9.18
2022-08-16T20:33:42.669Z,17.17
2022-08-16T20:36:16.336Z,14.00
2022-08-16T20:38:47.845Z,9.25
2022-08-16T20:41:17.714Z,13.85
2022-08-16T20:43:47.989Z,10.77
2022-08-16T20:46:19.228Z,10.35
2022-08-16T20:48:50.017Z,8.65
2022-08-16T20:51:18.419Z,9.40
2022-08-16T20:53:46.110Z,8.65
2022-08-16T20:56:14.312Z,8.45
2022-08-16T20:58:44.319Z,8.85
2022-08-16T21:01:12.306Z,9.02
2022-08-16T21:03:40.511Z,8.90
2022-08-16T21:06:10.889Z,8.65
2022-08-16T21:08:51.731Z,9.02
2022-08-16T21:11:22.949Z,8.30
2022-08-16T21:14:00.164Z,8.43
2022-08-16T21:16:29.005Z,8.50
2022-08-16T21:18:57.962Z,8.98
2022-08-16T21:21:32.038Z,8.80
2022-08-16T21:24:04.230Z,9.30
2022-08-16T21:26:32.404Z,8.73
2022-08-16T21:29:04.714Z,8.48
2022-08-16T21:31:35.583Z,9.23
2022-08-16T21:34:04.881Z,9.18
2022-08-16T21:36:36.470Z,9.05
2022-08-16T21:39:09.176Z,8.80
2022-08-16T21:41:39.318Z,9.77
2022-08-16T21:44:07.266Z,8.90
2022-08-16T21:46:35.744Z,8.60
2022-08-16T21:49:04.897Z,15.52
2022-08-16T21:51:32.754Z,12.07
2022-08-16T21:54:00.320Z,10.98
2022-08-16T21:56:28.513Z,11.85
2022-08-16T21:58:56.130Z,10.35
2022-08-16T22:01:24.711Z,9.52
2022-08-16T22:04:03.628Z,9.80
2022-08-16T22:06:44.125Z,9.95
2022-08-16T22:09:15.281Z,8.90
2022-08-16T22:11:44.089Z,9.18
2022-08-16T22:14:11.806Z,11.00
2022-08-16T22:16:41.877Z,14.30
2022-08-16T22:19:09.562Z,11.25
2022-08-16T22:21:40.063Z,9.55
2022-08-16T22:24:07.893Z,9.05
2022-08-16T22:26:42.331Z,9.38
2022-08-16T22:29:15.220Z,9.88
2022-08-16T22:31:46.489Z,8.90
2022-08-16T22:34:14.928Z,8.73
2022-08-16T22:36:43.350Z,8.95
2022-08-16T22:43:22.853Z,8.85
2022-08-16T22:45:50.481Z,8.50
2022-08-16T22:48:18.125Z,8.30
2022-08-16T22:50:45.650Z,8.90
2022-08-16T22:53:14.507Z,8.55
2022-08-16T22:55:43.040Z,11.18
2022-08-16T22:58:10.582Z,15.30
2022-08-16T23:00:38.108Z,8.48
2022-08-16T23:03:11.301Z,9.43
2022-08-16T23:05:49.447Z,13.18
2022-08-16T23:08:39.569Z,10.60
2022-08-16T23:11:13.045Z,9.63
2022-08-16T23:13:49.776Z,10.02
2022-08-16T23:16:34.418Z,9.90
2022-08-16T23:19:10.237Z,9.77
2022-08-16T23:21:40.999Z,9.32
2022-08-16T23:24:08.993Z,9.98
2022-08-16T23:26:45.980Z,8.90
2022-08-16T23:29:23.139Z,10.25
2022-08-16T23:31:59.562Z,10.48
2022-08-16T23:34:28.628Z,10.02
2022-08-16T23:36:58.816Z,11.63
2022-08-16T23:39:31.788Z,10.65
2022-08-16T23:41:59.420Z,10.02
2022-08-16T23:44:56.477Z,9.68
2022-08-16T23:47:14.635Z,10.10
2022-08-16T23:49:57.446Z,10.02
2022-08-16T23:52:42.165Z,9.23
2022-08-16T23:55:18.206Z,9.10
2022-08-16T23:57:46.499Z,9.65
